createdAt,value
2023-01-10T00:01:13.315Z,99048.94
2023-01-10T00:04:15.810Z,99037.13
2023-01-10T00:07:18.391Z,99051.84
2023-01-10T00:10:21.121Z,99050.03
2023-01-10T00:13:23.636Z,99048.00
2023-01-10T00:16:26.847Z,99044.13
2023-01-10T00:19:29.624Z,99043.53
2023-01-10T00:22:32.212Z,99046.19
2023-01-10T00:25:36.173Z,99041.94
2023-01-10T00:28:39.459Z,99040.69
2023-01-10T00:31:42.197Z,99047.16
2023-01-10T00:34:44.766Z,99044.53
2023-01-10T00:37:47.216Z,99042.75
2023-01-10T00:40:49.923Z,99040.44
2023-01-10T00:43:58.147Z,99032.97
2023-01-10T00:47:00.704Z,99033.19
2023-01-10T00:50:06.045Z,99039.88
2023-01-10T00:53:08.964Z,99035.38
2023-01-10T00:56:11.453Z,99036.63
2023-01-10T00:59:13.935Z,99046.03
2023-01-10T01:02:16.572Z,99039.06
2023-01-10T01:05:19.599Z,99042.19
2023-01-10T01:08:22.329Z,99047.66
2023-01-10T01:11:25.538Z,99044.00
2023-01-10T01:14:28.056Z,99041.13
2023-01-10T01:17:30.742Z,99045.22
2023-01-10T01:20:34.843Z,99033.56
2023-01-10T01:23:37.349Z,99042.34
2023-01-10T01:26:42.073Z,99040.09
2023-01-10T01:29:45.389Z,99036.00
2023-01-10T01:32:47.885Z,99027.00
2023-01-10T01:35:50.776Z,99028.25
2023-01-10T01:38:53.207Z,99027.22
2023-01-10T01:41:58.340Z,99035.44
2023-01-10T01:45:09.722Z,99040.31
2023-01-10T01:48:18.894Z,99038.50
2023-01-10T01:51:27.236Z,99019.50
2023-01-10T01:54:31.629Z,99033.19
2023-01-10T01:57:35.613Z,99028.91
2023-01-10T02:00:38.152Z,99031.38
2023-01-10T02:03:43.077Z,99039.75
2023-01-10T02:06:48.058Z,99037.13
2023-01-10T02:10:17.154Z,99034.88
2023-01-10T02:13:23.409Z,99035.28
2023-01-10T02:16:26.024Z,99040.59
2023-01-10T02:19:56.339Z,99054.06
2023-01-10T02:23:13.708Z,99060.41
2023-01-10T02:26:37.805Z,99062.41
2023-01-10T02:30:14.241Z,99046.25
2023-01-10T02:33:20.588Z,99054.03
2023-01-10T02:37:10.748Z,99064.66
2023-01-10T02:40:31.165Z,99055.09
2023-01-10T02:43:39.835Z,99062.81
2023-01-10T02:46:44.641Z,99045.84
2023-01-10T02:49:49.445Z,99047.88
2023-01-10T02:52:52.419Z,99051.78
2023-01-10T02:56:20.726Z,99058.50
2023-01-10T03:00:00.121Z,99050.94
2023-01-10T03:03:47.447Z,99051.16
2023-01-10T03:06:59.435Z,99056.03
2023-01-10T03:10:14.832Z,99058.50
2023-01-10T03:13:31.340Z,99069.94
2023-01-10T03:16:38.033Z,99064.66
2023-01-10T03:20:02.605Z,99081.63
2023-01-10T03:23:07.007Z,99073.25
2023-01-10T03:26:11.413Z,99070.81
2023-01-10T03:29:18.565Z,99080.59
2023-01-10T03:32:25.221Z,99067.94
2023-01-10T03:35:39.313Z,99082.81
2023-01-10T03:38:52.665Z,99076.91
2023-01-10T03:42:13.036Z,99079.94
2023-01-10T03:45:21.448Z,99064.06
2023-01-10T03:48:29.832Z,99067.91
2023-01-10T03:51:33.097Z,99083.66
2023-01-10T03:54:35.591Z,99080.00
2023-01-10T03:57:41.455Z,99090.63
2023-01-10T04:00:43.935Z,99097.97
2023-01-10T04:03:46.547Z,99097.97
2023-01-10T04:06:49.084Z,99100.84
2023-01-10T04:09:51.780Z,99106.50
2023-01-10T04:12:54.307Z,99102.03
2023-01-10T04:16:00.146Z,99106.50
2023-01-10T04:19:02.644Z,99089.63
2023-01-10T04:22:05.965Z,99097.38
2023-01-10T04:25:08.873Z,99091.84
2023-01-10T04:28:11.358Z,99100.03
2023-01-10T04:31:13.881Z,99107.19
2023-01-10T04:34:16.630Z,99102.47
2023-01-10T04:37:19.890Z,99090.66
2023-01-10T04:40:24.222Z,99096.16
2023-01-10T04:43:26.764Z,99095.53
2023-01-10T04:46:29.258Z,99105.13
2023-01-10T04:49:31.782Z,99110.41
2023-01-10T04:52:34.170Z,99109.22
2023-01-10T04:55:36.700Z,99124.13
2023-01-10T04:58:39.166Z,99119.00
2023-01-10T05:01:42.150Z,99132.66
2023-01-10T05:04:44.858Z,99130.03
2023-01-10T05:07:47.642Z,99138.19
2023-01-10T05:10:50.151Z,99138.59
2023-01-10T05:13:52.569Z,99144.94
2023-01-10T05:16:56.138Z,99144.50
2023-01-10T05:19:58.646Z,99157.38
2023-01-10T05:23:01.105Z,99150.66
2023-01-10T05:26:08.508Z,99166.53
2023-01-10T05:29:11.529Z,99165.13
2023-01-10T05:32:14.047Z,99186.38
2023-01-10T05:35:17.416Z,99188.00
2023-01-10T05:38:19.949Z,99193.53
2023-01-10T05:41:23.643Z,99194.97
2023-01-10T05:44:26.521Z,99192.06
2023-01-10T05:47:29.105Z,99181.84
2023-01-10T05:50:31.603Z,99185.53
2023-01-10T05:53:36.115Z,99187.38
2023-01-10T05:56:39.226Z,99170.84
2023-01-10T05:59:44.721Z,99166.34
2023-01-10T06:02:47.262Z,99177.16
2023-01-10T06:05:49.848Z,99198.81
2023-01-10T06:08:55.019Z,99208.44
2023-01-10T06:11:58.222Z,99212.13
2023-01-10T06:15:00.748Z,99213.78
2023-01-10T06:18:04.196Z,99214.00
2023-01-10T06:21:06.753Z,99225.25
2023-01-10T06:24:10.397Z,99237.72
2023-01-10T06:27:12.887Z,99241.59
2023-01-10T06:30:15.686Z,99257.97
2023-01-10T06:33:18.173Z,99251.41
2023-01-10T06:36:20.935Z,99250.59
2023-01-10T06:39:24.098Z,99266.34
2023-01-10T06:42:26.735Z,99259.41
2023-01-10T06:45:29.337Z,99261.22
2023-01-10T06:48:31.896Z,99257.16
2023-01-10T06:51:34.813Z,99267.34
2023-01-10T06:54:37.389Z,99274.28
2023-01-10T06:57:40.081Z,99288.38
2023-01-10T07:00:42.578Z,99287.34
2023-01-10T07:03:45.782Z,99306.97
2023-01-10T07:06:48.451Z,99306.13
2023-01-10T07:09:51.334Z,99319.19
2023-01-10T07:12:58.747Z,99320.22
2023-01-10T07:16:06.742Z,99328.19
2023-01-10T07:19:09.379Z,99331.44
2023-01-10T07:22:12.581Z,99335.09
2023-01-10T07:25:15.175Z,99344.31
2023-01-10T07:28:17.964Z,99338.97
2023-01-10T07:31:22.957Z,99346.75
2023-01-10T07:34:25.538Z,99360.44
2023-01-10T07:37:28.001Z,99362.00
2023-01-10T07:40:30.739Z,99366.16
2023-01-10T07:43:33.952Z,99373.34
2023-01-10T07:46:36.496Z,99382.09
2023-01-10T07:49:39.186Z,99386.59
2023-01-10T07:52:43.632Z,99399.69
2023-01-10T07:55:46.267Z,99410.88
2023-01-10T07:58:48.811Z,99418.81
2023-01-10T08:01:51.486Z,99423.16
2023-01-10T08:04:54.142Z,99434.59
2023-01-10T08:08:00.146Z,99425.75
2023-01-10T08:11:02.974Z,99453.34
2023-01-10T08:14:05.531Z,99452.09
2023-01-10T08:17:08.187Z,99465.19
2023-01-10T08:20:11.351Z,99462.72
2023-01-10T08:23:14.456Z,99476.00
2023-01-10T08:26:16.970Z,99482.53
2023-01-10T08:29:19.697Z,99487.03
2023-01-10T08:32:23.097Z,99499.69
2023-01-10T08:35:25.507Z,99497.41
2023-01-10T08:38:28.555Z,99512.16
2023-01-10T08:41:31.431Z,99502.56
2023-01-10T08:44:33.850Z,99526.25
2023-01-10T08:47:36.423Z,99523.19
2023-01-10T08:50:39.044Z,99536.66
2023-01-10T08:53:42.049Z,99544.81
2023-01-10T08:56:44.630Z,99543.19
2023-01-10T08:59:47.579Z,99556.41
2023-01-10T09:02:50.407Z,99551.03
2023-01-10T09:05:52.951Z,99556.75
2023-01-10T09:08:55.443Z,99576.94
2023-01-10T09:11:58.130Z,99600.16
2023-01-10T09:15:00.747Z,99589.13
2023-01-10T09:18:06.488Z,99615.84
2023-01-10T09:21:08.988Z,99620.69
2023-01-10T09:24:11.629Z,99625.94
2023-01-10T09:27:14.051Z,99640.19
2023-01-10T09:30:17.227Z,99638.50
2023-01-10T09:33:20.229Z,99641.09
2023-01-10T09:36:22.892Z,99660.50
2023-01-10T09:39:25.623Z,99646.75
2023-01-10T09:42:49.042Z,99662.78
2023-01-10T09:45:56.267Z,99664.22
2023-01-10T09:49:07.580Z,99666.41
2023-01-10T09:52:30.494Z,99672.53
2023-01-10T09:55:36.356Z,99683.91
2023-01-10T09:58:39.379Z,99680.78
2023-01-10T10:01:42.086Z,99680.41
2023-01-10T10:04:53.248Z,99685.72
2023-01-10T10:08:05.031Z,99687.75
2023-01-10T10:11:27.795Z,99692.22
2023-01-10T10:14:53.308Z,99692.91
2023-01-10T10:18:07.876Z,99696.41
2023-01-10T10:21:28.766Z,99709.84
2023-01-10T10:24:37.821Z,99692.31
2023-01-10T10:27:58.582Z,99687.94
2023-01-10T10:31:11.221Z,99691.09
2023-01-10T10:34:37.512Z,99702.63
2023-01-10T10:37:46.086Z,99716.25
2023-01-10T10:40:50.116Z,99725.09
2023-01-10T10:43:54.486Z,99723.25
2023-01-10T10:47:00.577Z,99721.19
2023-01-10T10:50:05.767Z,99726.72
2023-01-10T10:53:11.421Z,99733.03
2023-01-10T10:56:17.309Z,99742.44
2023-01-10T10:59:21.682Z,99747.13
2023-01-10T11:02:32.896Z,99764.28
2023-01-10T11:05:41.681Z,99753.31
2023-01-10T11:08:47.398Z,99764.94
2023-01-10T11:11:52.430Z,99774.91
2023-01-10T11:14:54.983Z,99775.53
2023-01-10T11:18:14.759Z,99788.81
2023-01-10T11:21:21.671Z,99787.66
2023-01-10T11:24:36.642Z,99808.19
2023-01-10T11:27:57.234Z,99799.41
2023-01-10T11:31:02.178Z,99796.13
2023-01-10T11:34:08.622Z,99815.13
2023-01-10T11:37:17.039Z,99813.38
2023-01-10T11:40:25.856Z,99814.84
2023-01-10T11:43:39.900Z,99825.28
2023-01-10T11:46:47.142Z,99825.34
2023-01-10T11:49:51.891Z,99826.00
2023-01-10T11:52:55.586Z,99832.03
2023-01-10T11:55:58.393Z,99834.88
2023-01-10T11:59:18.087Z,99839.63
2023-01-10T12:02:34.443Z,99841.44
2023-01-10T12:05:37.960Z,99851.50
2023-01-10T12:08:45.002Z,99846.63
2023-01-10T12:11:47.841Z,99843.41
2023-01-10T12:14:51.326Z,99844.97
2023-01-10T12:17:57.173Z,99849.19
2023-01-10T12:21:00.432Z,99850.16
2023-01-10T12:24:12.713Z,99859.72
2023-01-10T12:27:18.160Z,99859.97
2023-01-10T12:30:33.562Z,99862.69
2023-01-10T12:33:46.511Z,99868.56
2023-01-10T12:37:16.711Z,99867.00
2023-01-10T12:40:47.693Z,99885.00
2023-01-10T12:44:08.997Z,99882.84
2023-01-10T12:47:19.910Z,99894.63
2023-01-10T12:50:43.858Z,99899.09
2023-01-10T12:53:53.325Z,99892.78
2023-01-10T12:56:58.956Z,99907.50
2023-01-10T13:00:05.614Z,99911.19
2023-01-10T13:03:15.405Z,99918.97
2023-01-10T13:06:42.541Z,99921.00
2023-01-10T13:09:47.437Z,99918.28
2023-01-10T13:13:13.442Z,99911.69
2023-01-10T13:16:24.087Z,99919.59
2023-01-10T13:19:28.240Z,99930.66
2023-01-10T13:22:36.869Z,99927.06
2023-01-10T13:25:39.782Z,99918.22
2023-01-10T13:28:56.061Z,99935.22
2023-01-10T13:32:01.440Z,99942.19
2023-01-10T13:35:15.022Z,99951.34
2023-01-10T13:38:34.755Z,99958.00
2023-01-10T13:42:43.792Z,99972.03
2023-01-10T13:45:46.342Z,99977.59
2023-01-10T13:48:51.773Z,99978.88
2023-01-10T13:52:30.207Z,99985.63
2023-01-10T13:55:53.764Z,99983.34
2023-01-10T13:59:15.244Z,99994.38
2023-01-10T14:02:29.028Z,100001.34
2023-01-10T14:05:31.530Z,99996.94
2023-01-10T14:08:34.215Z,100005.94
2023-01-10T14:11:52.436Z,100004.13
2023-01-10T14:15:26.040Z,100018.97
2023-01-10T14:18:34.931Z,100012.81
2023-01-10T14:21:45.557Z,100023.94
2023-01-10T14:24:52.876Z,100033.34
2023-01-10T14:27:58.770Z,100025.75
2023-01-10T14:31:07.850Z,100042.69
2023-01-10T14:34:16.743Z,100036.84
2023-01-10T14:37:29.799Z,100050.78
2023-01-10T14:40:32.256Z,100061.31
2023-01-10T14:43:48.525Z,100064.84
2023-01-10T14:46:53.823Z,100067.28
2023-01-10T14:50:06.866Z,100075.94
2023-01-10T14:53:26.333Z,100077.53
2023-01-10T14:56:43.536Z,100084.66
2023-01-10T14:59:46.988Z,100085.94
2023-01-10T15:02:50.000Z,100086.69
2023-01-10T15:05:56.627Z,100086.94
2023-01-10T15:09:00.802Z,100094.00
2023-01-10T15:12:06.790Z,100102.06
2023-01-10T15:15:16.803Z,100103.41
2023-01-10T15:18:33.325Z,100119.81
2023-01-10T15:21:42.321Z,100124.47
2023-01-10T15:24:57.839Z,100130.44
2023-01-10T15:28:00.448Z,100136.59
2023-01-10T15:31:08.332Z,100145.53
2023-01-10T15:34:26.822Z,100143.00
2023-01-10T15:37:38.228Z,100153.25
2023-01-10T15:40:42.587Z,100158.81
2023-01-10T15:43:45.636Z,100161.84
2023-01-10T15:46:56.185Z,100167.44
2023-01-10T15:49:58.874Z,100169.63
2023-01-10T15:53:04.713Z,100172.53
2023-01-10T15:56:19.375Z,100183.50
2023-01-10T15:59:27.679Z,100184.94
2023-01-10T16:02:33.774Z,100192.59
2023-01-10T16:05:36.371Z,100182.72
2023-01-10T16:08:39.628Z,100185.56
2023-01-10T16:12:07.055Z,100193.81
2023-01-10T16:15:17.208Z,100203.59
2023-01-10T16:18:19.847Z,100198.19
2023-01-10T16:21:22.719Z,100207.56
2023-01-10T16:24:34.195Z,100203.06
2023-01-10T16:27:36.755Z,100209.47
2023-01-10T16:30:43.759Z,100209.41
2023-01-10T16:33:46.209Z,100219.56
2023-01-10T16:36:48.700Z,100212.78
2023-01-10T16:39:51.386Z,100225.88
2023-01-10T16:43:13.770Z,100220.94
2023-01-10T16:46:16.537Z,100227.06
2023-01-10T16:49:20.194Z,100233.19
2023-01-10T16:52:23.148Z,100239.59
2023-01-10T16:55:37.190Z,100241.00
2023-01-10T16:58:39.729Z,100249.78
2023-01-10T17:01:46.491Z,100250.22
2023-01-10T17:04:49.105Z,100253.06
2023-01-10T17:07:51.536Z,100254.28
2023-01-10T17:10:59.408Z,100267.84
2023-01-10T17:14:02.825Z,100266.16
2023-01-10T17:17:05.487Z,100264.47
2023-01-10T17:20:09.555Z,100266.81
2023-01-10T17:23:15.057Z,100267.47
2023-01-10T17:26:19.161Z,100254.19
2023-01-10T17:29:23.476Z,100263.81
2023-01-10T17:32:26.140Z,100275.75
2023-01-10T17:35:29.100Z,100280.88
2023-01-10T17:38:31.728Z,100285.53
2023-01-10T17:41:35.679Z,100289.47
2023-01-10T17:44:38.194Z,100303.22
2023-01-10T17:47:40.678Z,100309.72
2023-01-10T17:50:44.858Z,100310.63
2023-01-10T17:53:47.312Z,100318.13
2023-01-10T17:56:49.754Z,100313.66
2023-01-10T17:59:52.250Z,100315.22
2023-01-10T18:02:54.857Z,100310.53
2023-01-10T18:05:59.065Z,100326.91
2023-01-10T18:09:02.014Z,100319.22
2023-01-10T18:12:06.223Z,100333.78
2023-01-10T18:15:09.204Z,100337.53
2023-01-10T18:18:12.787Z,100338.06
2023-01-10T18:21:18.655Z,100338.25
2023-01-10T18:24:21.532Z,100340.09
2023-01-10T18:27:25.892Z,100344.75
2023-01-10T18:30:29.078Z,100339.09
2023-01-10T18:33:32.354Z,100342.84
2023-01-10T18:36:37.661Z,100347.16
2023-01-10T18:39:40.676Z,100345.97
2023-01-10T18:42:43.544Z,100352.84
2023-01-10T18:45:47.358Z,100356.66
2023-01-10T18:48:52.553Z,100358.16
2023-01-10T18:51:55.099Z,100362.22
2023-01-10T18:54:57.638Z,100365.97
2023-01-10T18:58:00.204Z,100357.13
2023-01-10T19:01:11.791Z,100363.91
2023-01-10T19:04:14.528Z,100363.91
2023-01-10T19:07:17.249Z,100354.13
2023-01-10T19:10:20.137Z,100356.59
2023-01-10T19:13:22.921Z,100350.81
2023-01-10T19:16:29.271Z,100358.28
2023-01-10T19:19:31.908Z,100355.78
2023-01-10T19:22:34.382Z,100350.47
2023-01-10T19:25:36.807Z,100356.13
2023-01-10T19:28:39.378Z,100362.56
2023-01-10T19:31:42.527Z,100365.88
2023-01-10T19:34:46.417Z,100375.50
2023-01-10T19:37:49.033Z,100375.69
2023-01-10T19:40:52.895Z,100383.34
2023-01-10T19:44:00.898Z,100377.69
2023-01-10T19:47:03.513Z,100397.75
2023-01-10T19:50:06.530Z,100395.34
2023-01-10T19:53:09.247Z,100391.84
2023-01-10T19:56:13.755Z,100406.50
2023-01-10T19:59:17.765Z,100401.53
2023-01-10T20:02:20.585Z,100409.56
2023-01-10T20:05:24.022Z,100418.66
2023-01-10T20:08:26.475Z,100404.44
2023-01-10T20:11:37.611Z,100414.66
2023-01-10T20:14:40.653Z,100418.34
2023-01-10T20:17:43.307Z,100415.94
2023-01-10T20:20:45.920Z,100408.16
2023-01-10T20:23:48.740Z,100416.69
2023-01-10T20:26:51.495Z,100410.81
2023-01-10T20:29:53.959Z,100407.53
2023-01-10T20:32:56.723Z,100430.31
2023-01-10T20:36:08.597Z,100431.13
2023-01-10T20:39:11.116Z,100439.75
2023-01-10T20:42:13.892Z,100447.69
2023-01-10T20:45:16.673Z,100448.06
2023-01-10T20:48:19.204Z,100439.94
2023-01-10T20:51:25.090Z,100451.41
2023-01-10T20:54:27.548Z,100451.44
2023-01-10T20:57:30.895Z,100452.44
2023-01-10T21:00:34.820Z,100465.53
2023-01-10T21:03:37.467Z,100458.22
2023-01-10T21:06:40.082Z,100449.66
2023-01-10T21:09:42.796Z,100456.06
2023-01-10T21:12:45.359Z,100458.09
2023-01-10T21:15:51.856Z,100463.06
2023-01-10T21:18:54.523Z,100456.59
2023-01-10T21:21:56.932Z,100456.94
2023-01-10T21:24:59.444Z,100450.66
2023-01-10T21:28:02.219Z,100455.47
2023-01-10T21:31:05.945Z,100449.97
2023-01-10T21:34:08.446Z,100460.09
2023-01-10T21:37:10.928Z,100459.13
2023-01-10T21:40:13.410Z,100455.50
2023-01-10T21:43:15.871Z,100457.19
2023-01-10T21:46:18.367Z,100451.88
2023-01-10T21:49:21.841Z,100449.44
2023-01-10T21:52:24.376Z,100442.66
2023-01-10T21:55:26.836Z,100449.63
2023-01-10T21:58:29.335Z,100436.41
2023-01-10T22:01:31.908Z,100450.34
2023-01-10T22:04:34.376Z,100443.56
2023-01-10T22:07:37.707Z,100439.06
2023-01-10T22:10:42.107Z,100446.66
2023-01-10T22:13:44.626Z,100448.34
2023-01-10T22:16:47.132Z,100447.19
2023-01-10T22:19:49.887Z,100446.84
2023-01-10T22:22:52.507Z,100446.84
2023-01-10T22:26:06.046Z,100452.47
2023-01-10T22:29:08.561Z,100452.94
2023-01-10T22:32:11.653Z,100458.06
2023-01-10T22:35:14.748Z,100454.59
2023-01-10T22:38:17.212Z,100443.19
2023-01-10T22:41:26.528Z,100448.13
2023-01-10T22:44:29.075Z,100451.13
2023-01-10T22:47:31.503Z,100452.28
2023-01-10T22:50:34.361Z,100454.59
2023-01-10T22:53:36.939Z,100448.47
2023-01-10T22:56:39.520Z,100442.16
2023-01-10T22:59:41.980Z,100445.47
2023-01-10T23:02:44.509Z,100453.59
2023-01-10T23:05:47.048Z,100447.78
2023-01-10T23:08:50.525Z,100448.75
2023-01-10T23:11:52.921Z,100471.44
2023-01-10T23:14:55.395Z,100461.63
2023-01-10T23:17:57.950Z,100462.81
2023-01-10T23:21:00.939Z,100462.47
2023-01-10T23:24:03.568Z,100465.59
2023-01-10T23:27:05.935Z,100465.09
2023-01-10T23:30:10.782Z,100468.22
2023-01-10T23:33:13.405Z,100463.88
2023-01-10T23:36:16.895Z,100456.44
2023-01-10T23:39:19.551Z,100460.72
2023-01-10T23:42:22.276Z,100458.38
2023-01-10T23:45:25.000Z,100466.97
2023-01-10T23:48:28.222Z,100463.81
2023-01-10T23:51:30.774Z,100456.34
2023-01-10T23:54:33.470Z,100458.31
2023-01-10T23:57:35.952Z,100461.00
